sensor_id;sensor_type;location;lat;lon;timestamp;pressure;altitude;pressure_sealevel;temperature;humidity
60375;BME280;70244;48.792;9.172;2023-09-08T04:16:28;97792.96;;;26.18;55.58
60375;BME280;70244;48.792;9.172;2023-09-08T04:18:59;97791.88;;;26.04;55.97
60375;BME280;70244;48.792;9.172;2023-09-08T04:21:14;97789.68;;;26.30;55.33
60375;BME280;70244;48.792;9.172;2023-09-08T04:23:44;97795.64;;;26.10;55.86
60375;BME280;70244;48.792;9.172;2023-09-08T04:26:14;97797.09;;;26.32;55.37
60375;BME280;70244;48.792;9.172;2023-09-08T04:28:44;97793.31;;;26.15;55.67
60375;BME280;70244;48.792;9.172;2023-09-08T04:31:15;97791.86;;;26.27;55.42
60375;BME280;70244;48.792;9.172;2023-09-08T04:33:46;97793.66;;;26.25;55.34
60375;BME280;70244;48.792;9.172;2023-09-08T04:36:16;97793.19;;;26.28;55.35
60375;BME280;70244;48.792;9.172;2023-09-08T04:38:47;97796.16;;;26.21;55.41
60375;BME280;70244;48.792;9.172;2023-09-08T04:41:18;97799.85;;;26.39;55.06
60375;BME280;70244;48.792;9.172;2023-09-08T04:43:48;97801.34;;;26.42;54.94
60375;BME280;70244;48.792;9.172;2023-09-08T04:46:19;97802.55;;;26.02;55.39
60375;BME280;70244;48.792;9.172;2023-09-08T04:48:50;97803.24;;;26.60;54.60
60375;BME280;70244;48.792;9.172;2023-09-08T04:51:20;97803.17;;;26.51;54.78
60375;BME280;70244;48.792;9.172;2023-09-08T04:53:51;97806.67;;;26.37;55.10
60375;BME280;70244;48.792;9.172;2023-09-08T04:56:21;97801.95;;;26.45;54.82
60375;BME280;70244;48.792;9.172;2023-09-08T04:58:52;97803.86;;;26.34;55.14
60375;BME280;70244;48.792;9.172;2023-09-08T05:01:22;97803.84;;;26.45;54.72
60375;BME280;70244;48.792;9.172;2023-09-08T05:03:53;97804.31;;;26.38;54.77
60375;BME280;70244;48.792;9.172;2023-09-08T05:06:23;97805.98;;;26.35;55.05
60375;BME280;70244;48.792;9.172;2023-09-08T05:08:54;97802.96;;;26.39;54.91
60375;BME280;70244;48.792;9.172;2023-09-08T05:11:25;97804.23;;;26.33;55.04
60375;BME280;70244;48.792;9.172;2023-09-08T05:13:55;97803.48;;;26.42;54.75
60375;BME280;70244;48.792;9.172;2023-09-08T05:16:26;97803.81;;;26.54;54.45
60375;BME280;70244;48.792;9.172;2023-09-08T05:18:57;97798.73;;;26.55;54.45
60375;BME280;70244;48.792;9.172;2023-09-08T05:21:27;97799.54;;;26.43;54.69
60375;BME280;70244;48.792;9.172;2023-09-08T05:23:58;97800.30;;;26.52;54.55
60375;BME280;70244;48.792;9.172;2023-09-08T05:26:29;97805.33;;;26.49;54.66
60375;BME280;70244;48.792;9.172;2023-09-08T05:28:59;97805.91;;;26.54;54.56
60375;BME280;70244;48.792;9.172;2023-09-08T05:31:30;97810.43;;;26.61;54.34
60375;BME280;70244;48.792;9.172;2023-09-08T05:34:01;97813.29;;;26.82;53.91
60375;BME280;70244;48.792;9.172;2023-09-08T05:36:31;97813.44;;;26.85;53.83
60375;BME280;70244;48.792;9.172;2023-09-08T05:39:02;97818.40;;;27.03;53.43
60375;BME280;70244;48.792;9.172;2023-09-08T05:41:32;97819.69;;;26.83;53.83
60375;BME280;70244;48.792;9.172;2023-09-08T05:44:04;97815.97;;;26.54;54.51
60375;BME280;70244;48.792;9.172;2023-09-08T05:46:34;97821.49;;;26.63;54.32
60375;BME280;70244;48.792;9.172;2023-09-08T05:49:04;97824.99;;;26.72;54.12
60375;BME280;70244;48.792;9.172;2023-09-08T05:51:35;97821.06;;;26.50;54.55
60375;BME280;70244;48.792;9.172;2023-09-08T05:54:06;97822.58;;;26.72;54.15
60375;BME280;70244;48.792;9.172;2023-09-08T05:56:37;97821.24;;;26.77;54.02
60375;BME280;70244;48.792;9.172;2023-09-08T05:59:06;97822.24;;;26.82;53.87
60375;BME280;70244;48.792;9.172;2023-09-08T06:01:37;97820.17;;;27.04;53.44
60375;BME280;70244;48.792;9.172;2023-09-08T06:04:07;97821.10;;;26.85;53.85
60375;BME280;70244;48.792;9.172;2023-09-08T06:06:38;97823.21;;;26.83;53.92
60375;BME280;70244;48.792;9.172;2023-09-08T06:09:09;97827.53;;;27.04;53.48
60375;BME280;70244;48.792;9.172;2023-09-08T06:11:40;97825.64;;;27.05;53.41
60375;BME280;70244;48.792;9.172;2023-09-08T06:14:10;97824.85;;;26.89;53.71
60375;BME280;70244;48.792;9.172;2023-09-08T06:16:41;97826.29;;;26.80;53.89
60375;BME280;70244;48.792;9.172;2023-09-08T06:19:12;97825.72;;;27.00;53.48
60375;BME280;70244;48.792;9.172;2023-09-08T06:21:42;97821.72;;;27.15;53.10
60375;BME280;70244;48.792;9.172;2023-09-08T06:24:12;97821.07;;;27.18;53.06
60375;BME280;70244;48.792;9.172;2023-09-08T06:26:43;97821.17;;;27.27;52.77
60375;BME280;70244;48.792;9.172;2023-09-08T06:29:14;97821.96;;;27.30;52.75
60375;BME280;70244;48.792;9.172;2023-09-08T06:31:44;97820.36;;;27.40;52.58
60375;BME280;70244;48.792;9.172;2023-09-08T06:34:15;97823.93;;;27.41;52.53
60375;BME280;70244;48.792;9.172;2023-09-08T06:36:45;97824.12;;;27.41;52.47
60375;BME280;70244;48.792;9.172;2023-09-08T06:39:16;97825.21;;;27.18;52.98
60375;BME280;70244;48.792;9.172;2023-09-08T06:41:47;97830.01;;;27.11;53.12
60375;BME280;70244;48.792;9.172;2023-09-08T06:44:17;97831.03;;;27.30;52.71
60375;BME280;70244;48.792;9.172;2023-09-08T06:46:48;97826.78;;;27.17;53.02
60375;BME280;70244;48.792;9.172;2023-09-08T06:49:18;97830.16;;;27.40;52.45
60375;BME280;70244;48.792;9.172;2023-09-08T06:51:49;97826.98;;;27.33;52.64
60375;BME280;70244;48.792;9.172;2023-09-08T06:54:19;97825.86;;;27.55;52.09
60375;BME280;70244;48.792;9.172;2023-09-08T06:56:49;97825.07;;;27.24;52.74
60375;BME280;70244;48.792;9.172;2023-09-08T06:59:20;97827.23;;;27.10;53.08
60375;BME280;70244;48.792;9.172;2023-09-08T07:01:51;97828.60;;;27.56;52.19
60375;BME280;70244;48.792;9.172;2023-09-08T07:04:21;97828.03;;;27.56;52.11
60375;BME280;70244;48.792;9.172;2023-09-08T07:06:51;97828.56;;;27.42;52.40
60375;BME280;70244;48.792;9.172;2023-09-08T07:09:22;97829.59;;;27.46;52.32
60375;BME280;70244;48.792;9.172;2023-09-08T07:11:53;97828.24;;;27.46;52.29
60375;BME280;70244;48.792;9.172;2023-09-08T07:14:23;97832.01;;;27.49;52.28
60375;BME280;70244;48.792;9.172;2023-09-08T07:16:54;97832.24;;;27.47;52.31
60375;BME280;70244;48.792;9.172;2023-09-08T07:19:25;97834.04;;;27.63;51.94
60375;BME280;70244;48.792;9.172;2023-09-08T07:21:55;97830.10;;;27.50;52.27
60375;BME280;70244;48.792;9.172;2023-09-08T07:24:26;97829.34;;;27.49;52.29
60375;BME280;70244;48.792;9.172;2023-09-08T07:26:56;97831.47;;;27.19;52.86
60375;BME280;70244;48.792;9.172;2023-09-08T07:29:26;97830.57;;;27.73;51.79
60375;BME280;70244;48.792;9.172;2023-09-08T07:31:57;97828.54;;;27.67;51.85
60375;BME280;70244;48.792;9.172;2023-09-08T07:34:27;97825.40;;;27.71;51.83
60375;BME280;70244;48.792;9.172;2023-09-08T07:36:57;97829.37;;;27.85;51.49
60375;BME280;70244;48.792;9.172;2023-09-08T07:39:28;97828.20;;;27.86;51.52
60375;BME280;70244;48.792;9.172;2023-09-08T07:41:58;97833.07;;;27.82;51.53
60375;BME280;70244;48.792;9.172;2023-09-08T07:44:29;97833.80;;;27.86;51.53
60375;BME280;70244;48.792;9.172;2023-09-08T07:46:59;97832.47;;;27.80;51.63
60375;BME280;70244;48.792;9.172;2023-09-08T07:49:30;97828.86;;;27.98;51.31
60375;BME280;70244;48.792;9.172;2023-09-08T07:52:00;97829.51;;;27.76;51.74
60375;BME280;70244;48.792;9.172;2023-09-08T07:54:31;97832.59;;;27.87;51.57
60375;BME280;70244;48.792;9.172;2023-09-08T07:57:01;97833.50;;;27.88;51.55
60375;BME280;70244;48.792;9.172;2023-09-08T07:59:31;97832.23;;;27.63;52.15
60375;BME280;70244;48.792;9.172;2023-09-08T08:02:03;97831.75;;;27.79;51.83
60375;BME280;70244;48.792;9.172;2023-09-08T08:04:33;97829.25;;;27.73;51.91
60375;BME280;70244;48.792;9.172;2023-09-08T08:07:03;97827.71;;;27.77;51.85
60375;BME280;70244;48.792;9.172;2023-09-08T08:09:34;97832.68;;;27.89;51.72
60375;BME280;70244;48.792;9.172;2023-09-08T08:12:04;97827.33;;;27.83;51.84
60375;BME280;70244;48.792;9.172;2023-09-08T08:14:34;97826.56;;;27.89;51.80
60375;BME280;70244;48.792;9.172;2023-09-08T08:17:05;97826.00;;;27.82;51.90
60375;BME280;70244;48.792;9.172;2023-09-08T08:19:35;97826.18;;;27.76;52.11
60375;BME280;70244;48.792;9.172;2023-09-08T08:22:06;97828.15;;;27.84;51.94
60375;BME280;70244;48.792;9.172;2023-09-08T08:24:36;97829.11;;;27.91;51.83
60375;BME280;70244;48.792;9.172;2023-09-08T08:27:06;97829.23;;;27.86;52.09
60375;BME280;70244;48.792;9.172;2023-09-08T08:29:37;97828.17;;;27.66;52.57
60375;BME280;70244;48.792;9.172;2023-09-08T08:32:07;97828.23;;;27.88;52.04
60375;BME280;70244;48.792;9.172;2023-09-08T08:34:38;97824.29;;;27.76;52.39
60375;BME280;70244;48.792;9.172;2023-09-08T08:37:08;97824.48;;;27.95;52.02
60375;BME280;70244;48.792;9.172;2023-09-08T08:39:39;97823.53;;;28.00;51.91
60375;BME280;70244;48.792;9.172;2023-09-08T08:42:10;97825.00;;;28.08;51.70
60375;BME280;70244;48.792;9.172;2023-09-08T08:44:40;97820.35;;;28.02;51.89
60375;BME280;70244;48.792;9.172;2023-09-08T08:47:10;97821.87;;;27.70;52.77
60375;BME280;70244;48.792;9.172;2023-09-08T08:49:42;97822.59;;;27.77;52.79
60375;BME280;70244;48.792;9.172;2023-09-08T08:52:12;97818.15;;;27.94;52.29
60375;BME280;70244;48.792;9.172;2023-09-08T08:54:42;97815.89;;;27.89;52.57
60375;BME280;70244;48.792;9.172;2023-09-08T08:57:12;97817.82;;;27.79;52.80
60375;BME280;70244;48.792;9.172;2023-09-08T08:59:42;97817.32;;;28.08;52.23
60375;BME280;70244;48.792;9.172;2023-09-08T09:02:13;97817.68;;;28.14;51.91
60375;BME280;70244;48.792;9.172;2023-09-08T09:04:44;97815.91;;;28.25;51.68
60375;BME280;70244;48.792;9.172;2023-09-08T09:07:14;97814.62;;;28.08;52.10
60375;BME280;70244;48.792;9.172;2023-09-08T09:09:44;97812.22;;;28.17;51.97
60375;BME280;70244;48.792;9.172;2023-09-08T09:12:15;97811.94;;;28.05;52.21
60375;BME280;70244;48.792;9.172;2023-09-08T09:14:46;97810.26;;;28.08;52.19
60375;BME280;70244;48.792;9.172;2023-09-08T09:17:16;97810.74;;;28.22;51.93
60375;BME280;70244;48.792;9.172;2023-09-08T09:19:47;97812.64;;;28.25;51.87
60375;BME280;70244;48.792;9.172;2023-09-08T09:22:20;97811.59;;;28.13;52.23
60375;BME280;70244;48.792;9.172;2023-09-08T09:24:48;97813.81;;;28.29;51.91
60375;BME280;70244;48.792;9.172;2023-09-08T09:27:21;97814.86;;;28.18;52.18
60375;BME280;70244;48.792;9.172;2023-09-08T09:29:50;97816.89;;;28.22;52.10
60375;BME280;70244;48.792;9.172;2023-09-08T09:32:23;97816.72;;;28.22;52.13
60375;BME280;70244;48.792;9.172;2023-09-08T09:34:52;97816.13;;;28.19;52.23
60375;BME280;70244;48.792;9.172;2023-09-08T09:37:21;97814.44;;;28.15;52.32
60375;BME280;70244;48.792;9.172;2023-09-08T09:39:52;97815.90;;;28.34;51.97
60375;BME280;70244;48.792;9.172;2023-09-08T09:42:22;97814.73;;;28.29;52.07
60375;BME280;70244;48.792;9.172;2023-09-08T09:44:52;97818.17;;;28.27;52.18
60375;BME280;70244;48.792;9.172;2023-09-08T09:47:23;97816.62;;;28.26;52.41
60375;BME280;70244;48.792;9.172;2023-09-08T09:49:53;97814.49;;;28.07;53.02
60375;BME280;70244;48.792;9.172;2023-09-08T09:52:24;97816.21;;;28.27;52.42
60375;BME280;70244;48.792;9.172;2023-09-08T09:54:54;97814.90;;;28.28;52.40
60375;BME280;70244;48.792;9.172;2023-09-08T09:57:25;97812.59;;;28.24;52.47
60375;BME280;70244;48.792;9.172;2023-09-08T09:59:55;97812.74;;;28.13;52.78
60375;BME280;70244;48.792;9.172;2023-09-08T10:02:25;97808.24;;;27.79;53.83
60375;BME280;70244;48.792;9.172;2023-09-08T10:04:55;97805.12;;;28.18;52.88
60375;BME280;70244;48.792;9.172;2023-09-08T10:07:26;97805.74;;;28.12;53.23
60375;BME280;70244;48.792;9.172;2023-09-08T10:09:56;97807.02;;;28.23;52.85
60375;BME280;70244;48.792;9.172;2023-09-08T10:12:27;97807.09;;;28.38;52.41
60375;BME280;70244;48.792;9.172;2023-09-08T10:14:58;97807.40;;;28.21;52.91
60375;BME280;70244;48.792;9.172;2023-09-08T10:17:30;97805.81;;;28.31;52.61
60375;BME280;70244;48.792;9.172;2023-09-08T10:20:00;97802.30;;;28.34;52.55
60375;BME280;70244;48.792;9.172;2023-09-08T10:22:30;97796.73;;;28.24;52.81
60375;BME280;70244;48.792;9.172;2023-09-08T10:25:02;97793.26;;;28.33;52.61
60375;BME280;70244;48.792;9.172;2023-09-08T10:27:29;97790.52;;;28.36;52.49
60375;BME280;70244;48.792;9.172;2023-09-08T10:30:00;97789.84;;;28.38;52.48
60375;BME280;70244;48.792;9.172;2023-09-08T10:32:31;97786.98;;;28.34;52.55
60375;BME280;70244;48.792;9.172;2023-09-08T10:35:02;97784.95;;;28.39;52.44
60375;BME280;70244;48.792;9.172;2023-09-08T10:37:31;97787.45;;;28.49;52.24
60375;BME280;70244;48.792;9.172;2023-09-08T10:42:32;97784.57;;;28.47;52.25
60375;BME280;70244;48.792;9.172;2023-09-08T10:45:14;97785.07;;;28.38;52.43
60375;BME280;70244;48.792;9.172;2023-09-08T10:47:41;97781.94;;;28.40;52.41
60375;BME280;70244;48.792;9.172;2023-09-08T10:50:04;97783.18;;;28.28;52.73
60375;BME280;70244;48.792;9.172;2023-09-08T10:52:35;97778.68;;;28.34;52.65
60375;BME280;70244;48.792;9.172;2023-09-08T10:55:05;97778.96;;;28.25;52.90
60375;BME280;70244;48.792;9.172;2023-09-08T10:57:35;97774.29;;;28.30;52.81
60375;BME280;70244;48.792;9.172;2023-09-08T11:00:07;97774.13;;;28.32;52.79
60375;BME280;70244;48.792;9.172;2023-09-08T11:02:38;97779.97;;;28.42;52.52
60375;BME280;70244;48.792;9.172;2023-09-08T11:05:08;97782.91;;;28.44;52.54
60375;BME280;70244;48.792;9.172;2023-09-08T11:07:38;97782.86;;;28.45;52.44
60375;BME280;70244;48.792;9.172;2023-09-08T11:10:09;97782.53;;;28.51;52.30
60375;BME280;70244;48.792;9.172;2023-09-08T11:12:38;97777.90;;;28.55;52.19
60375;BME280;70244;48.792;9.172;2023-09-08T11:15:09;97777.03;;;28.48;52.41
60375;BME280;70244;48.792;9.172;2023-09-08T11:17:40;97776.87;;;28.47;52.65
60375;BME280;70244;48.792;9.172;2023-09-08T11:20:11;97776.56;;;28.50;52.59
60375;BME280;70244;48.792;9.172;2023-09-08T11:22:41;97780.61;;;28.40;52.82
60375;BME280;70244;48.792;9.172;2023-09-08T11:25:11;97782.33;;;28.49;52.63
60375;BME280;70244;48.792;9.172;2023-09-08T11:27:42;97778.67;;;28.36;53.00
60375;BME280;70244;48.792;9.172;2023-09-08T11:30:12;97777.09;;;28.37;52.97
60375;BME280;70244;48.792;9.172;2023-09-08T11:32:42;97773.18;;;28.36;52.96
60375;BME280;70244;48.792;9.172;2023-09-08T11:35:13;97777.16;;;28.42;52.79
60375;BME280;70244;48.792;9.172;2023-09-08T11:37:43;97775.37;;;28.44;52.72
60375;BME280;70244;48.792;9.172;2023-09-08T11:40:14;97777.13;;;28.51;52.59
60375;BME280;70244;48.792;9.172;2023-09-08T11:42:44;97777.54;;;28.48;52.59
60375;BME280;70244;48.792;9.172;2023-09-08T11:45:16;97776.25;;;28.51;52.56
60375;BME280;70244;48.792;9.172;2023-09-08T11:47:45;97775.65;;;28.59;52.34
60375;BME280;70244;48.792;9.172;2023-09-08T11:50:18;97774.64;;;28.58;52.38
60375;BME280;70244;48.792;9.172;2023-09-08T11:52:48;97775.50;;;28.51;52.55
60375;BME280;70244;48.792;9.172;2023-09-08T11:55:18;97776.05;;;28.59;52.44
60375;BME280;70244;48.792;9.172;2023-09-08T11:57:51;97777.61;;;28.60;52.33
60375;BME280;70244;48.792;9.172;2023-09-08T12:00:19;97777.09;;;28.67;52.19
60375;BME280;70244;48.792;9.172;2023-09-08T12:02:49;97774.14;;;28.66;52.22
60375;BME280;70244;48.792;9.172;2023-09-08T12:05:23;97774.52;;;28.66;52.25
60375;BME280;70244;48.792;9.172;2023-09-08T12:07:50;97775.21;;;28.52;52.60
60375;BME280;70244;48.792;9.172;2023-09-08T12:10:21;97775.37;;;28.53;52.64
60375;BME280;70244;48.792;9.172;2023-09-08T12:12:53;97774.39;;;28.55;52.63
60375;BME280;70244;48.792;9.172;2023-09-08T12:15:30;97770.62;;;28.53;52.61
60375;BME280;70244;48.792;9.172;2023-09-08T12:17:53;97770.52;;;28.55;52.53
60375;BME280;70244;48.792;9.172;2023-09-08T12:20:23;97768.27;;;28.69;52.24
60375;BME280;70244;48.792;9.172;2023-09-08T12:22:53;97764.47;;;28.70;52.15
60375;BME280;70244;48.792;9.172;2023-09-08T12:25:23;97762.15;;;28.69;52.18
60375;BME280;70244;48.792;9.172;2023-09-08T12:27:54;97762.85;;;28.70;52.12
60375;BME280;70244;48.792;9.172;2023-09-08T12:30:24;97757.38;;;28.68;52.16
60375;BME280;70244;48.792;9.172;2023-09-08T12:32:55;97759.23;;;28.70;52.10
60375;BME280;70244;48.792;9.172;2023-09-08T12:35:25;97757.67;;;28.70;52.08
60375;BME280;70244;48.792;9.172;2023-09-08T12:37:58;97757.30;;;28.64;52.22
60375;BME280;70244;48.792;9.172;2023-09-08T12:40:26;97759.89;;;28.64;52.26
60375;BME280;70244;48.792;9.172;2023-09-08T12:42:56;97757.20;;;28.72;52.08
60375;BME280;70244;48.792;9.172;2023-09-08T12:45:27;97753.92;;;28.77;51.98
60375;BME280;70244;48.792;9.172;2023-09-08T12:47:59;97752.70;;;28.62;52.25
60375;BME280;70244;48.792;9.172;2023-09-08T12:50:28;97748.41;;;28.59;52.35
60375;BME280;70244;48.792;9.172;2023-09-08T12:52:59;97747.54;;;28.65;52.26
60375;BME280;70244;48.792;9.172;2023-09-08T12:55:29;97747.76;;;28.69;52.15
60375;BME280;70244;48.792;9.172;2023-09-08T12:57:59;97744.84;;;28.50;52.59
60375;BME280;70244;48.792;9.172;2023-09-08T13:00:30;97743.89;;;28.62;52.31
60375;BME280;70244;48.792;9.172;2023-09-08T13:03:00;97742.42;;;28.71;52.13
60375;BME280;70244;48.792;9.172;2023-09-08T13:05:30;97740.65;;;28.63;52.30
60375;BME280;70244;48.792;9.172;2023-09-08T13:08:01;97742.03;;;28.67;52.13
60375;BME280;70244;48.792;9.172;2023-09-08T13:10:31;97740.99;;;28.72;52.05
60375;BME280;70244;48.792;9.172;2023-09-08T13:13:02;97734.98;;;28.78;51.95
60375;BME280;70244;48.792;9.172;2023-09-08T13:15:32;97735.87;;;28.77;51.87
60375;BME280;70244;48.792;9.172;2023-09-08T13:18:03;97732.52;;;28.54;52.42
60375;BME280;70244;48.792;9.172;2023-09-08T13:20:34;97729.45;;;28.66;52.12
60375;BME280;70244;48.792;9.172;2023-09-08T13:23:04;97725.56;;;28.71;52.02
60375;BME280;70244;48.792;9.172;2023-09-08T13:25:34;97721.66;;;28.72;51.95
60375;BME280;70244;48.792;9.172;2023-09-08T13:28:06;97722.91;;;28.80;51.79
60375;BME280;70244;48.792;9.172;2023-09-08T13:30:36;97717.20;;;28.81;51.70
60375;BME280;70244;48.792;9.172;2023-09-08T13:33:06;97710.74;;;28.74;51.87
60375;BME280;70244;48.792;9.172;2023-09-08T13:35:37;97714.28;;;28.80;51.66
60375;BME280;70244;48.792;9.172;2023-09-08T13:38:07;97713.80;;;28.81;51.69
60375;BME280;70244;48.792;9.172;2023-09-08T13:40:38;97712.57;;;28.87;51.58
60375;BME280;70244;48.792;9.172;2023-09-08T13:43:08;97711.15;;;28.85;51.52
60375;BME280;70244;48.792;9.172;2023-09-08T13:45:38;97710.93;;;28.88;51.55
60375;BME280;70244;48.792;9.172;2023-09-08T13:48:09;97707.99;;;28.81;51.70
60375;BME280;70244;48.792;9.172;2023-09-08T13:50:45;97705.55;;;28.87;51.50
60375;BME280;70244;48.792;9.172;2023-09-08T13:53:10;97708.09;;;28.89;51.45
60375;BME280;70244;48.792;9.172;2023-09-08T13:55:41;97706.88;;;28.85;51.48
60375;BME280;70244;48.792;9.172;2023-09-08T13:58:11;97706.97;;;28.83;51.53
60375;BME280;70244;48.792;9.172;2023-09-08T14:00:42;97709.71;;;28.86;51.46
60375;BME280;70244;48.792;9.172;2023-09-08T14:03:12;97707.43;;;28.77;51.50
60375;BME280;70244;48.792;9.172;2023-09-08T14:05:43;97708.80;;;28.84;51.44
60375;BME280;70244;48.792;9.172;2023-09-08T14:08:13;97711.18;;;28.94;51.14
60375;BME280;70244;48.792;9.172;2023-09-08T14:10:44;97710.48;;;28.83;51.33
60375;BME280;70244;48.792;9.172;2023-09-08T14:13:15;97708.89;;;28.82;51.31
60375;BME280;70244;48.792;9.172;2023-09-08T14:15:45;97708.43;;;28.79;51.32
60375;BME280;70244;48.792;9.172;2023-09-08T14:18:15;97705.66;;;28.75;51.34
60375;BME280;70244;48.792;9.172;2023-09-08T14:20:46;97700.94;;;28.86;51.22
60375;BME280;70244;48.792;9.172;2023-09-08T14:23:16;97701.80;;;28.88;51.19
60375;BME280;70244;48.792;9.172;2023-09-08T14:25:46;97701.52;;;28.89;51.09
60375;BME280;70244;48.792;9.172;2023-09-08T14:28:17;97705.02;;;28.87;51.14
60375;BME280;70244;48.792;9.172;2023-09-08T14:30:49;97702.07;;;28.84;51.07
60375;BME280;70244;48.792;9.172;2023-09-08T14:33:18;97700.13;;;28.85;50.98
60375;BME280;70244;48.792;9.172;2023-09-08T14:35:48;97698.50;;;28.86;51.06
60375;BME280;70244;48.792;9.172;2023-09-08T14:38:19;97703.27;;;28.93;50.98
60375;BME280;70244;48.792;9.172;2023-09-08T14:40:54;97707.11;;;28.87;51.10
60375;BME280;70244;48.792;9.172;2023-09-08T14:43:20;97706.35;;;28.92;50.83
60375;BME280;70244;48.792;9.172;2023-09-08T14:45:50;97705.11;;;28.84;50.96
60375;BME280;70244;48.792;9.172;2023-09-08T14:48:21;97702.26;;;28.89;50.96
60375;BME280;70244;48.792;9.172;2023-09-08T14:50:51;97700.88;;;28.91;50.95
60375;BME280;70244;48.792;9.172;2023-09-08T14:53:22;97694.07;;;28.96;50.82
60375;BME280;70244;48.792;9.172;2023-09-08T14:55:52;97691.57;;;28.93;50.84
60375;BME280;70244;48.792;9.172;2023-09-08T14:58:23;97689.48;;;28.95;50.80
60375;BME280;70244;48.792;9.172;2023-09-08T15:00:53;97689.61;;;28.98;50.69
60375;BME280;70244;48.792;9.172;2023-09-08T15:03:23;97691.58;;;29.01;50.56
60375;BME280;70244;48.792;9.172;2023-09-08T15:05:54;97690.69;;;28.94;50.74
60375;BME280;70244;48.792;9.172;2023-09-08T15:08:25;97690.08;;;29.00;50.62
60375;BME280;70244;48.792;9.172;2023-09-08T15:10:55;97692.23;;;28.97;50.67
60375;BME280;70244;48.792;9.172;2023-09-08T15:13:25;97691.66;;;28.94;50.71
60375;BME280;70244;48.792;9.172;2023-09-08T15:15:57;97691.26;;;28.99;50.60
60375;BME280;70244;48.792;9.172;2023-09-08T15:18:27;97695.29;;;28.95;50.65
60375;BME280;70244;48.792;9.172;2023-09-08T15:20:57;97696.61;;;28.90;50.70
60375;BME280;70244;48.792;9.172;2023-09-08T15:23:28;97693.95;;;28.89;50.76
60375;BME280;70244;48.792;9.172;2023-09-08T15:25:58;97691.86;;;28.97;50.66
60375;BME280;70244;48.792;9.172;2023-09-08T15:28:29;97692.44;;;28.99;50.58
60375;BME280;70244;48.792;9.172;2023-09-08T15:31:00;97691.30;;;29.04;50.36
60375;BME280;70244;48.792;9.172;2023-09-08T15:33:30;97691.03;;;28.98;50.46
60375;BME280;70244;48.792;9.172;2023-09-08T15:36:00;97689.26;;;28.94;50.59
60375;BME280;70244;48.792;9.172;2023-09-08T15:38:31;97686.86;;;28.98;50.54
60375;BME280;70244;48.792;9.172;2023-09-08T15:43:31;97689.55;;;29.02;50.37
60375;BME280;70244;48.792;9.172;2023-09-08T15:46:02;97685.06;;;29.00;50.39
60375;BME280;70244;48.792;9.172;2023-09-08T15:48:34;97686.69;;;29.00;50.40
60375;BME280;70244;48.792;9.172;2023-09-08T15:51:04;97683.74;;;28.96;50.50
60375;BME280;70244;48.792;9.172;2023-09-08T15:53:34;97683.29;;;28.97;50.46
60375;BME280;70244;48.792;9.172;2023-09-08T15:56:05;97683.65;;;29.06;50.26
60375;BME280;70244;48.792;9.172;2023-09-08T15:58:35;97680.70;;;29.13;50.12
60375;BME280;70244;48.792;9.172;2023-09-08T16:01:06;97678.24;;;29.15;50.08
60375;BME280;70244;48.792;9.172;2023-09-08T16:03:36;97676.42;;;29.21;50.02
60375;BME280;70244;48.792;9.172;2023-09-08T16:06:06;97677.77;;;29.11;50.13
60375;BME280;70244;48.792;9.172;2023-09-08T16:08:36;97675.34;;;29.21;50.00
60375;BME280;70244;48.792;9.172;2023-09-08T16:11:06;97674.71;;;29.20;50.02
60375;BME280;70244;48.792;9.172;2023-09-08T16:13:37;97672.76;;;29.24;49.98
60375;BME280;70244;48.792;9.172;2023-09-08T16:16:07;97673.94;;;29.32;49.83
60375;BME280;70244;48.792;9.172;2023-09-08T16:18:38;97670.72;;;29.30;49.90
60375;BME280;70244;48.792;9.172;2023-09-08T16:21:08;97673.13;;;29.23;50.01
60375;BME280;70244;48.792;9.172;2023-09-08T16:23:39;97669.93;;;29.26;49.97
60375;BME280;70244;48.792;9.172;2023-09-08T16:26:09;97673.82;;;29.31;49.89
60375;BME280;70244;48.792;9.172;2023-09-08T16:28:39;97672.79;;;29.30;49.93
60375;BME280;70244;48.792;9.172;2023-09-08T16:31:10;97669.48;;;29.37;49.83
60375;BME280;70244;48.792;9.172;2023-09-08T16:33:40;97670.15;;;29.35;49.86
60375;BME280;70244;48.792;9.172;2023-09-08T16:36:11;97669.57;;;29.36;49.86
60375;BME280;70244;48.792;9.172;2023-09-08T16:38:41;97670.30;;;29.39;49.81
60375;BME280;70244;48.792;9.172;2023-09-08T16:41:12;97668.54;;;29.38;49.83
60375;BME280;70244;48.792;9.172;2023-09-08T16:43:42;97672.85;;;29.33;49.93
60375;BME280;70244;48.792;9.172;2023-09-08T16:46:12;97671.43;;;29.33;49.92
60375;BME280;70244;48.792;9.172;2023-09-08T16:48:43;97670.87;;;29.32;49.93
60375;BME280;70244;48.792;9.172;2023-09-08T16:51:13;97671.15;;;29.26;50.07
60375;BME280;70244;48.792;9.172;2023-09-08T16:53:44;97671.12;;;29.32;49.95
60375;BME280;70244;48.792;9.172;2023-09-08T16:56:15;97672.06;;;29.29;50.01
60375;BME280;70244;48.792;9.172;2023-09-08T16:58:45;97673.63;;;29.29;49.97
60375;BME280;70244;48.792;9.172;2023-09-08T17:01:20;97672.63;;;29.26;50.03
60375;BME280;70244;48.792;9.172;2023-09-08T17:03:46;97673.25;;;29.24;50.09
60375;BME280;70244;48.792;9.172;2023-09-08T17:06:16;97673.81;;;29.26;50.04
60375;BME280;70244;48.792;9.172;2023-09-08T17:08:47;97673.08;;;29.25;50.09
60375;BME280;70244;48.792;9.172;2023-09-08T17:11:17;97673.50;;;29.27;50.06
60375;BME280;70244;48.792;9.172;2023-09-08T17:13:48;97672.48;;;29.24;50.10
60375;BME280;70244;48.792;9.172;2023-09-08T17:16:18;97671.10;;;29.28;50.03
60375;BME280;70244;48.792;9.172;2023-09-08T17:18:49;97670.71;;;29.27;50.06
60375;BME280;70244;48.792;9.172;2023-09-08T17:21:19;97671.61;;;29.27;50.06
60375;BME280;70244;48.792;9.172;2023-09-08T17:23:50;97673.22;;;29.25;50.04
60375;BME280;70244;48.792;9.172;2023-09-08T17:26:20;97671.23;;;29.25;50.02
60375;BME280;70244;48.792;9.172;2023-09-08T17:28:51;97676.56;;;29.24;49.98
60375;BME280;70244;48.792;9.172;2023-09-08T17:31:22;97674.03;;;29.25;49.95
60375;BME280;70244;48.792;9.172;2023-09-08T17:33:57;97674.86;;;29.25;49.97
60375;BME280;70244;48.792;9.172;2023-09-08T17:36:22;97674.33;;;29.23;49.99